Terminal Aerodrome Forecast
Issued by NWS Sioux Falls, SD

Home | Current Version | Previous Version | Graphics & Text | Print | Product List | Glossary Off
Versions: 1 2 3 4 5 6 7 8 9 10 11 12 13 14 15

000
FTUS43 KFSD 232320
TAFHON
TAF
KHON 232320Z 2400/2424 12008KT P6SM OVC015
     FM240700 11007KT P6SM OVC008
     FM241100 08010KT 3SM -SN OVC008
     FM241400 06013KT 2SM -SN OVC005
     FM242000 03015G23KT 1/2SM SN OVC005=

USA.gov is the U.S. government's official web portal to all federal, state and local government web resources and services.